Terminal Aerodrome Forecast
Issued by NWS

Home | Current Version | Previous Version | Text Only | Print | Product List | Glossary On
Versions: 1 2 3 4 5 6 7 8 9 10 11 12 13 14 15 16 17 18 19
000
FTUS46 KSGX 052325
TAFCRQ
TAF
KCRQ 052325Z 0600/0624 21011KT P6SM SCT035 OVC045
     FM060300 VRB05KT P6SM BKN025 BKN050
     FM060600 VRB05KT P6SM -SHRA SCT015 BKN025 OVC035
     FM061800 20010KT P6SM -SHRA BKN015 OVC025
     FM062100 23010G18KT P6SM VCSH SCT015 BKN025=

USA.gov is the U.S. government's official web portal to all federal, state and local government web resources and services.